createdAt,value
2022-11-14T00:01:18.278Z,98032.56
2022-11-14T00:03:46.837Z,98037.66
2022-11-14T00:06:14.807Z,98033.78
2022-11-14T00:08:41.031Z,98025.66
2022-11-14T00:11:07.958Z,98030.34
2022-11-14T00:13:34.386Z,98028.28
2022-11-14T00:16:00.928Z,98025.63
2022-11-14T00:18:28.155Z,98020.97
2022-11-14T00:20:54.670Z,98024.81
2022-11-14T00:23:22.223Z,98016.66
2022-11-14T00:25:49.421Z,98019.53
2022-11-14T00:28:16.532Z,98020.53
2022-11-14T00:30:43.147Z,98028.84
2022-11-14T00:33:09.591Z,98022.38
2022-11-14T00:35:36.682Z,98020.75
2022-11-14T00:38:03.860Z,98015.84
2022-11-14T00:40:31.667Z,98011.81
2022-11-14T00:42:58.483Z,98014.03
2022-11-14T00:45:25.188Z,98013.34
2022-11-14T00:47:51.463Z,98023.69
2022-11-14T00:50:17.864Z,98021.88
2022-11-14T00:52:44.700Z,98008.06
2022-11-14T00:55:13.388Z,98007.44
2022-11-14T00:57:40.072Z,98010.06
2022-11-14T01:00:06.981Z,97999.47
2022-11-14T01:02:33.318Z,97997.19
2022-11-14T01:04:59.776Z,97993.50
2022-11-14T01:07:26.041Z,97994.94
2022-11-14T01:09:52.291Z,97981.13
2022-11-14T01:12:20.261Z,97992.19
2022-11-14T01:14:46.582Z,97977.75
2022-11-14T01:17:12.883Z,97977.50
2022-11-14T01:19:39.932Z,97980.72
2022-11-14T01:25:08.637Z,97981.75
2022-11-14T01:27:34.932Z,97972.19
2022-11-14T01:30:07.945Z,97973.97
2022-11-14T01:32:35.913Z,97977.00
2022-11-14T01:35:02.423Z,97974.53
2022-11-14T01:37:30.117Z,97978.03
2022-11-14T01:39:56.539Z,97971.91
2022-11-14T01:42:41.296Z,97962.84
2022-11-14T01:45:07.507Z,97969.16
2022-11-14T01:47:35.010Z,97968.94
2022-11-14T01:50:01.264Z,97966.09
2022-11-14T01:52:27.918Z,97956.19
2022-11-14T01:54:54.239Z,97954.59
2022-11-14T01:57:21.359Z,97937.53
2022-11-14T01:59:47.610Z,97949.97
2022-11-14T02:05:05.882Z,97932.13
2022-11-14T02:07:33.010Z,97936.16
2022-11-14T02:09:59.364Z,97932.91
2022-11-14T02:12:26.344Z,97929.63
2022-11-14T02:14:53.226Z,97924.84
2022-11-14T02:17:29.695Z,97923.94
2022-11-14T02:20:00.809Z,97920.66
2022-11-14T02:22:30.454Z,97912.75
2022-11-14T02:24:57.956Z,97915.81
2022-11-14T02:27:24.517Z,97914.53
2022-11-14T02:29:52.424Z,97914.88
2022-11-14T02:32:56.839Z,97907.09
2022-11-14T02:35:28.373Z,97906.53
2022-11-14T02:37:55.653Z,97897.78
2022-11-14T02:40:22.881Z,97899.84
2022-11-14T02:42:49.499Z,97898.66
2022-11-14T02:45:15.842Z,97897.22
2022-11-14T02:47:43.539Z,97897.22
2022-11-14T02:50:10.006Z,97899.09
2022-11-14T02:52:36.466Z,97895.84
2022-11-14T02:55:03.797Z,97901.94
2022-11-14T02:57:30.171Z,97893.19
2022-11-14T02:59:56.916Z,97887.06
2022-11-14T03:02:24.591Z,97885.25
2022-11-14T03:04:50.815Z,97884.03
2022-11-14T03:07:18.070Z,97881.41
2022-11-14T03:09:45.290Z,97879.47
2022-11-14T03:12:12.652Z,97878.34
2022-11-14T03:14:40.948Z,97870.31
2022-11-14T03:17:07.208Z,97867.16
2022-11-14T03:19:36.271Z,97861.31
2022-11-14T03:22:06.021Z,97863.16
2022-11-14T03:24:33.905Z,97870.63
2022-11-14T03:27:00.418Z,97869.34
2022-11-14T03:29:27.047Z,97861.00
2022-11-14T03:31:56.323Z,97868.53
2022-11-14T03:34:22.845Z,97857.47
2022-11-14T03:36:49.143Z,97851.56
2022-11-14T03:39:15.444Z,97852.19
2022-11-14T03:41:42.227Z,97859.63
2022-11-14T03:44:08.484Z,97843.03
2022-11-14T03:46:35.536Z,97842.25
2022-11-14T03:49:01.819Z,97849.50
2022-11-14T03:51:28.262Z,97841.00
2022-11-14T03:53:54.868Z,97860.19
2022-11-14T03:56:22.129Z,97858.56
2022-11-14T03:58:48.359Z,97851.78
2022-11-14T04:01:15.956Z,97839.19
2022-11-14T04:03:42.299Z,97841.63
2022-11-14T04:06:08.709Z,97852.38
2022-11-14T04:08:34.972Z,97853.44
2022-11-14T04:11:01.257Z,97846.91
2022-11-14T04:13:27.577Z,97846.28
2022-11-14T04:15:53.854Z,97846.69
2022-11-14T04:18:21.567Z,97837.38
2022-11-14T04:20:47.960Z,97837.38
2022-11-14T04:23:14.617Z,97840.41
2022-11-14T04:25:42.081Z,97825.94
2022-11-14T04:28:08.654Z,97830.16
2022-11-14T04:30:35.023Z,97825.09
2022-11-14T04:33:01.356Z,97830.97
2022-11-14T04:35:28.586Z,97819.03
2022-11-14T04:37:55.630Z,97824.97
2022-11-14T04:40:23.120Z,97823.75
2022-11-14T04:42:50.913Z,97826.75
2022-11-14T04:45:18.149Z,97822.88
2022-11-14T04:47:44.504Z,97819.63
2022-11-14T04:50:12.022Z,97809.53
2022-11-14T04:52:38.678Z,97813.56
2022-11-14T04:55:05.399Z,97810.34
2022-11-14T04:57:31.756Z,97803.09
2022-11-14T04:59:58.753Z,97803.47
2022-11-14T05:02:26.375Z,97798.22
2022-11-14T05:04:53.283Z,97798.00
2022-11-14T05:07:19.641Z,97790.97
2022-11-14T05:09:47.731Z,97784.91
2022-11-14T05:12:14.853Z,97786.53
2022-11-14T05:14:41.660Z,97771.06
2022-11-14T05:17:09.477Z,97782.41
2022-11-14T05:19:35.841Z,97783.66
2022-11-14T05:22:02.415Z,97783.66
2022-11-14T05:24:31.101Z,97782.25
2022-11-14T05:26:58.819Z,97788.66
2022-11-14T05:29:25.721Z,97780.41
2022-11-14T05:31:52.044Z,97779.25
2022-11-14T05:34:18.765Z,97780.50
2022-11-14T05:36:45.483Z,97773.81
2022-11-14T05:39:13.719Z,97769.94
2022-11-14T05:41:40.295Z,97763.28
2022-11-14T05:44:06.810Z,97773.19
2022-11-14T05:46:33.726Z,97761.22
2022-11-14T05:49:00.085Z,97757.50
2022-11-14T05:51:26.389Z,97751.59
2022-11-14T05:53:52.686Z,97757.25
2022-11-14T05:56:19.804Z,97747.78
2022-11-14T05:58:46.091Z,97752.63
2022-11-14T06:01:14.008Z,97748.34
2022-11-14T06:03:41.153Z,97745.53
2022-11-14T06:06:08.318Z,97741.91
2022-11-14T06:08:35.315Z,97740.09
2022-11-14T06:11:03.332Z,97741.25
2022-11-14T06:13:30.257Z,97748.31
2022-11-14T06:15:56.534Z,97748.13
2022-11-14T06:18:22.808Z,97748.06
2022-11-14T06:20:50.693Z,97746.28
2022-11-14T06:23:23.413Z,97753.16
2022-11-14T06:25:50.927Z,97749.25
2022-11-14T06:28:18.596Z,97755.50
2022-11-14T06:30:44.904Z,97768.06
2022-11-14T06:33:11.219Z,97759.97
2022-11-14T06:35:37.666Z,97761.22
2022-11-14T06:38:04.145Z,97760.22
2022-11-14T06:40:31.636Z,97759.41
2022-11-14T06:42:58.734Z,97762.41
2022-11-14T06:45:25.040Z,97768.09
2022-11-14T06:47:51.677Z,97775.63
2022-11-14T06:50:18.022Z,97777.28
2022-11-14T06:52:45.073Z,97768.72
2022-11-14T06:55:11.418Z,97773.38
2022-11-14T06:57:38.265Z,97765.63
2022-11-14T07:00:04.564Z,97766.81
2022-11-14T07:02:31.784Z,97773.97
2022-11-14T07:04:59.327Z,97780.69
2022-11-14T07:07:26.930Z,97780.50
2022-11-14T07:09:54.985Z,97788.88
2022-11-14T07:12:21.253Z,97780.09
2022-11-14T07:14:47.552Z,97783.41
2022-11-14T07:17:15.281Z,97787.91
2022-11-14T07:19:43.770Z,97794.50
2022-11-14T07:22:10.870Z,97800.25
2022-11-14T07:24:38.125Z,97806.78
2022-11-14T07:27:07.611Z,97811.72
2022-11-14T07:29:35.513Z,97808.91
2022-11-14T07:32:01.972Z,97819.59
2022-11-14T07:34:29.195Z,97818.81
2022-11-14T07:36:55.710Z,97821.72
2022-11-14T07:39:22.339Z,97820.38
2022-11-14T07:41:48.878Z,97820.09
2022-11-14T07:44:16.975Z,97822.19
2022-11-14T07:46:43.299Z,97826.38
2022-11-14T07:49:09.692Z,97822.34
2022-11-14T07:51:35.990Z,97819.34
2022-11-14T07:54:03.356Z,97825.38
2022-11-14T07:56:29.620Z,97822.38
2022-11-14T07:58:57.951Z,97828.38
2022-11-14T08:01:25.439Z,97824.00
2022-11-14T08:03:53.799Z,97818.44
2022-11-14T08:06:24.839Z,97824.34
2022-11-14T08:08:52.221Z,97821.00
2022-11-14T08:11:34.516Z,97824.38
2022-11-14T08:16:53.201Z,97813.13
2022-11-14T08:19:26.666Z,97816.25
2022-11-14T08:22:12.324Z,97809.19
2022-11-14T08:27:55.191Z,97802.03
2022-11-14T08:30:21.496Z,97808.03
2022-11-14T08:32:47.790Z,97804.13
2022-11-14T08:35:14.079Z,97810.13
2022-11-14T08:37:42.904Z,97808.34
2022-11-14T08:40:10.140Z,97800.50
2022-11-14T08:42:40.741Z,97800.59
2022-11-14T08:45:13.856Z,97803.34
2022-11-14T08:47:42.843Z,97798.34
2022-11-14T08:50:13.036Z,97799.25
2022-11-14T08:52:40.907Z,97785.00
2022-11-14T08:55:09.482Z,97774.19
2022-11-14T08:57:44.114Z,97776.41
2022-11-14T09:00:15.187Z,97767.44
2022-11-14T09:02:46.066Z,97756.41
2022-11-14T09:05:20.144Z,97751.94
2022-11-14T09:07:50.342Z,97757.16
2022-11-14T09:10:25.547Z,97757.00
2022-11-14T09:12:53.296Z,97748.03
2022-11-14T09:15:23.381Z,97742.56
2022-11-14T09:17:53.244Z,97746.66
2022-11-14T09:20:21.236Z,97746.53
2022-11-14T09:22:50.386Z,97740.47
2022-11-14T09:25:24.529Z,97747.50
2022-11-14T09:27:55.552Z,97732.91
2022-11-14T09:30:27.197Z,97735.44
2022-11-14T09:32:55.599Z,97747.78
2022-11-14T09:35:22.594Z,97746.81
2022-11-14T09:37:50.293Z,97747.44
2022-11-14T09:40:22.733Z,97738.19
2022-11-14T09:42:50.252Z,97744.16
2022-11-14T09:45:18.421Z,97739.72
2022-11-14T09:47:48.888Z,97743.00
2022-11-14T09:50:24.407Z,97730.53
2022-11-14T09:52:54.754Z,97723.41
2022-11-14T09:55:24.728Z,97721.63
2022-11-14T09:57:53.638Z,97719.00
2022-11-14T10:00:26.536Z,97723.31
2022-11-14T10:02:55.271Z,97721.53
2022-11-14T10:05:23.656Z,97732.25
2022-11-14T10:07:51.974Z,97720.84
2022-11-14T10:10:19.478Z,97728.09
2022-11-14T10:12:56.404Z,97730.53
2022-11-14T10:15:45.087Z,97729.56
2022-11-14T10:18:35.878Z,97723.44
2022-11-14T10:21:03.801Z,97726.16
2022-11-14T10:26:25.960Z,97719.88
2022-11-14T10:34:59.347Z,97724.31
2022-11-14T10:37:27.649Z,97720.88
2022-11-14T10:42:53.842Z,97719.91
2022-11-14T10:45:27.384Z,97714.59
2022-11-14T10:47:55.308Z,97728.25
2022-11-14T10:50:27.849Z,97721.34
2022-11-14T10:52:55.025Z,97708.25
2022-11-14T10:55:49.732Z,97705.88
2022-11-14T10:58:11.841Z,97711.25
2022-11-14T11:00:39.946Z,97717.69
2022-11-14T11:03:14.403Z,97730.56
2022-11-14T11:05:42.971Z,97728.19
2022-11-14T11:08:41.485Z,97733.00
2022-11-14T11:17:03.389Z,97727.44
2022-11-14T11:19:33.414Z,97726.94
2022-11-14T11:22:02.988Z,97718.44
2022-11-14T11:24:33.992Z,97723.25
2022-11-14T11:27:07.170Z,97713.38
2022-11-14T11:29:36.764Z,97711.78
2022-11-14T11:32:10.464Z,97715.53
2022-11-14T11:34:38.310Z,97706.19
2022-11-14T11:37:13.904Z,97709.41
2022-11-14T11:39:40.953Z,97704.59
2022-11-14T11:42:14.050Z,97701.41
2022-11-14T11:44:41.596Z,97714.25
2022-11-14T11:47:08.758Z,97716.94
2022-11-14T11:49:40.290Z,97708.38
2022-11-14T11:52:12.297Z,97700.09
2022-11-14T11:54:39.539Z,97705.72
2022-11-14T11:57:08.016Z,97696.66
2022-11-14T11:59:34.446Z,97700.66
2022-11-14T12:02:00.749Z,97691.31
2022-11-14T12:04:27.835Z,97679.50
2022-11-14T12:06:54.263Z,97685.41
2022-11-14T12:09:22.088Z,97685.97
2022-11-14T12:11:48.475Z,97686.50
2022-11-14T12:14:15.625Z,97680.06
2022-11-14T12:16:57.382Z,97690.28
2022-11-14T12:19:27.693Z,97660.25
2022-11-14T12:21:59.702Z,97672.88
2022-11-14T12:24:30.062Z,97672.59
2022-11-14T12:27:06.760Z,97664.56
2022-11-14T12:29:35.445Z,97668.88
2022-11-14T12:32:04.924Z,97661.63
2022-11-14T12:34:31.822Z,97665.94
2022-11-14T12:37:02.838Z,97663.25
2022-11-14T12:39:29.449Z,97664.84
2022-11-14T12:41:57.123Z,97667.53
2022-11-14T12:44:28.822Z,97661.91
2022-11-14T12:46:56.499Z,97660.03
2022-11-14T12:49:34.259Z,97664.34
2022-11-14T12:52:03.260Z,97656.03
2022-11-14T12:54:30.925Z,97654.97
2022-11-14T12:56:59.243Z,97640.50
2022-11-14T12:59:32.520Z,97641.03
2022-11-14T13:01:59.051Z,97641.03
2022-11-14T13:04:28.262Z,97633.00
2022-11-14T13:07:00.002Z,97623.38
2022-11-14T13:09:29.002Z,97627.13
2022-11-14T13:12:00.087Z,97629.00
2022-11-14T13:14:27.400Z,97622.81
2022-11-14T13:16:54.853Z,97613.47
2022-11-14T13:19:22.309Z,97622.28
2022-11-14T13:21:59.081Z,97621.50
2022-11-14T13:24:29.704Z,97618.00
2022-11-14T13:27:02.599Z,97617.72
2022-11-14T13:29:29.963Z,97613.47
2022-11-14T13:32:00.371Z,97604.63
2022-11-14T13:34:27.030Z,97604.88
2022-11-14T13:36:54.161Z,97601.41
2022-11-14T13:39:21.992Z,97598.19
2022-11-14T13:41:51.516Z,97592.81
2022-11-14T13:44:18.891Z,97588.81
2022-11-14T13:46:46.371Z,97585.31
2022-11-14T13:49:14.126Z,97587.19
2022-11-14T13:51:44.120Z,97582.91
2022-11-14T13:54:17.577Z,97575.66
2022-11-14T13:56:47.557Z,97577.84
2022-11-14T13:59:15.920Z,97570.03
2022-11-14T14:01:43.276Z,97571.41
2022-11-14T14:04:10.007Z,97570.56
2022-11-14T14:06:36.653Z,97560.13
2022-11-14T14:09:04.299Z,97565.75
2022-11-14T14:11:32.625Z,97554.50
2022-11-14T14:13:59.745Z,97551.84
2022-11-14T14:16:26.311Z,97550.50
2022-11-14T14:18:52.597Z,97554.25
2022-11-14T14:21:21.260Z,97551.03
2022-11-14T14:23:48.111Z,97550.47
2022-11-14T14:26:14.678Z,97547.28
2022-11-14T14:28:40.998Z,97545.66
2022-11-14T14:31:07.978Z,97541.66
2022-11-14T14:33:34.909Z,97539.22
2022-11-14T14:36:01.765Z,97542.97
2022-11-14T14:38:28.346Z,97540.56
2022-11-14T14:40:57.504Z,97538.16
2022-11-14T14:43:24.717Z,97531.19
2022-11-14T14:45:50.993Z,97531.72
2022-11-14T14:48:17.332Z,97531.72
2022-11-14T14:50:43.655Z,97531.44
2022-11-14T14:53:11.252Z,97525.56
2022-11-14T14:55:37.670Z,97525.00
2022-11-14T14:58:05.782Z,97513.00
2022-11-14T15:00:32.050Z,97515.66
2022-11-14T15:02:58.929Z,97509.78
2022-11-14T15:05:25.297Z,97507.63
2022-11-14T15:07:52.020Z,97510.31
2022-11-14T15:10:18.324Z,97503.59
2022-11-14T15:12:44.882Z,97491.53
2022-11-14T15:15:11.751Z,97495.28
2022-11-14T15:17:38.324Z,97499.81
2022-11-14T15:20:05.345Z,97498.47
2022-11-14T15:22:32.184Z,97503.28
2022-11-14T15:25:01.080Z,97486.69
2022-11-14T15:27:29.175Z,97485.88
2022-11-14T15:29:56.442Z,97484.28
2022-11-14T15:32:23.199Z,97485.59
2022-11-14T15:34:49.550Z,97485.88
2022-11-14T15:37:15.998Z,97481.59
2022-11-14T15:39:42.440Z,97482.91
2022-11-14T15:42:09.030Z,97481.31
2022-11-14T15:44:36.167Z,97485.31
2022-11-14T15:47:02.589Z,97481.03
2022-11-14T15:49:49.265Z,97481.59
2022-11-14T15:52:16.595Z,97484.53
2022-11-14T15:54:42.856Z,97473.81
2022-11-14T15:57:11.193Z,97469.78
2022-11-14T15:59:44.460Z,97465.75
2022-11-14T16:02:11.618Z,97458.81
2022-11-14T16:04:39.751Z,97456.41
2022-11-14T16:07:09.833Z,97457.72
2022-11-14T16:09:36.143Z,97466.84
2022-11-14T16:12:03.381Z,97458.25
2022-11-14T16:14:31.192Z,97452.66
2022-11-14T16:16:58.223Z,97451.03
2022-11-14T16:19:25.425Z,97444.34
2022-11-14T16:21:52.427Z,97444.63
2022-11-14T16:24:18.829Z,97439.53
2022-11-14T16:26:45.226Z,97438.19
2022-11-14T16:29:11.539Z,97429.63
2022-11-14T16:31:37.813Z,97427.47
2022-11-14T16:34:08.982Z,97421.59
2022-11-14T16:36:35.283Z,97423.72
2022-11-14T16:39:01.549Z,97413.28
2022-11-14T16:41:27.845Z,97422.66
2022-11-14T16:43:55.153Z,97426.63
2022-11-14T16:46:22.557Z,97436.78
2022-11-14T16:48:49.052Z,97440.53
2022-11-14T16:51:46.292Z,97441.56
2022-11-14T16:54:02.170Z,97448.81
2022-11-14T16:56:28.482Z,97451.75
2022-11-14T16:58:55.228Z,97453.84
2022-11-14T17:01:22.231Z,97450.66
2022-11-14T17:03:49.708Z,97443.72
2022-11-14T17:06:16.030Z,97445.81
2022-11-14T17:08:42.361Z,97438.06
2022-11-14T17:11:08.689Z,97431.09
2022-11-14T17:13:36.798Z,97427.06
2022-11-14T17:16:03.993Z,97429.19
2022-11-14T17:18:37.065Z,97427.56
2022-11-14T17:21:05.198Z,97430.25
2022-11-14T17:23:31.631Z,97424.34
2022-11-14T17:25:57.925Z,97425.44
2022-11-14T17:28:24.261Z,97424.88
2022-11-14T17:30:51.145Z,97414.19
2022-11-14T17:33:17.432Z,97418.72
2022-11-14T17:35:44.489Z,97408.03
2022-11-14T17:38:11.432Z,97408.88
2022-11-14T17:40:38.994Z,97408.88
2022-11-14T17:43:05.319Z,97405.38
2022-11-14T17:45:31.577Z,97405.94
2022-11-14T17:47:57.874Z,97402.22
2022-11-14T17:50:24.184Z,97396.59
2022-11-14T17:52:52.201Z,97392.84
2022-11-14T17:55:18.497Z,97391.00
2022-11-14T17:57:46.206Z,97385.66
2022-11-14T18:00:12.650Z,97389.91
2022-11-14T18:02:39.001Z,97391.81
2022-11-14T18:05:07.951Z,97391.81
2022-11-14T18:07:35.491Z,97381.13
2022-11-14T18:10:01.852Z,97380.31
2022-11-14T18:12:28.513Z,97382.16
2022-11-14T18:14:56.994Z,97383.25
2022-11-14T18:17:23.276Z,97383.25
2022-11-14T18:19:49.617Z,97387.78
2022-11-14T18:22:16.440Z,97384.28
2022-11-14T18:24:43.102Z,97383.78
2022-11-14T18:27:09.491Z,97379.22
2022-11-14T18:29:37.193Z,97372.28
2022-11-14T18:32:03.690Z,97373.59
2022-11-14T18:34:32.284Z,97366.66
2022-11-14T18:37:17.257Z,97360.78
2022-11-14T18:39:44.112Z,97361.84
2022-11-14T18:42:10.761Z,97357.56
2022-11-14T18:44:37.448Z,97358.38
2022-11-14T18:47:05.391Z,97362.88
2022-11-14T18:49:39.424Z,97365.56
2022-11-14T18:52:15.747Z,97363.72
2022-11-14T18:54:52.007Z,97358.63
2022-11-14T18:57:23.378Z,97355.16
2022-11-14T19:00:12.208Z,97350.06
2022-11-14T19:02:43.322Z,97348.44
2022-11-14T19:05:15.652Z,97352.75
2022-11-14T19:08:17.695Z,97352.19
2022-11-14T19:10:58.095Z,97340.69
2022-11-14T19:13:43.425Z,97353.28
2022-11-14T19:16:11.733Z,97353.28
2022-11-14T19:18:39.786Z,97354.88
2022-11-14T19:21:09.286Z,97344.19
2022-11-14T19:23:42.541Z,97345.25
2022-11-14T19:26:19.324Z,97344.19
2022-11-14T19:32:20.498Z,97362.88
2022-11-14T19:34:48.012Z,97355.41
2022-11-14T19:37:14.305Z,97355.41
2022-11-14T19:39:42.206Z,97351.66
2022-11-14T19:42:09.820Z,97345.53
2022-11-14T19:44:37.781Z,97352.75
2022-11-14T19:47:10.984Z,97352.47
2022-11-14T19:49:40.660Z,97350.63
2022-11-14T19:52:09.212Z,97348.72
2022-11-14T19:54:35.561Z,97344.19
2022-11-14T19:57:11.609Z,97351.16
2022-11-14T20:02:52.156Z,97345.00
2022-11-14T20:05:19.920Z,97345.81
2022-11-14T20:07:49.646Z,97349.81
2022-11-14T20:10:19.255Z,97359.19
2022-11-14T20:12:51.088Z,97349.06
2022-11-14T20:15:19.724Z,97346.91
2022-11-14T20:17:46.858Z,97347.44
2022-11-14T20:20:26.087Z,97346.41
2022-11-14T20:22:53.636Z,97338.66
2022-11-14T20:25:20.063Z,97328.78
2022-11-14T20:27:48.044Z,97340.00
2022-11-14T20:30:16.248Z,97332.81
2022-11-14T20:32:42.924Z,97322.94
2022-11-14T20:35:09.214Z,97318.66
2022-11-14T20:37:37.773Z,97322.13
2022-11-14T20:40:05.838Z,97326.66
2022-11-14T20:42:32.167Z,97330.16
2022-11-14T20:44:59.512Z,97332.81
2022-11-14T20:47:25.913Z,97342.69
2022-11-14T20:49:52.232Z,97338.44
2022-11-14T20:52:19.718Z,97335.75
2022-11-14T20:54:46.558Z,97342.69
2022-11-14T20:57:14.706Z,97359.53
2022-11-14T20:59:41.019Z,97351.78
2022-11-14T21:02:07.942Z,97344.56
2022-11-14T21:04:34.317Z,97347.50
2022-11-14T21:07:03.104Z,97339.47
2022-11-14T21:09:31.882Z,97345.63
2022-11-14T21:11:58.178Z,97344.00
2022-11-14T21:14:25.481Z,97339.47
2022-11-14T21:16:51.761Z,97344.81
2022-11-14T21:19:18.115Z,97342.16
2022-11-14T21:21:44.850Z,97357.94
2022-11-14T21:24:11.270Z,97350.16
2022-11-14T21:26:38.290Z,97349.09
2022-11-14T21:29:05.151Z,97362.19
2022-11-14T21:31:32.867Z,97353.38
2022-11-14T21:33:59.629Z,97355.78
2022-11-14T21:39:12.566Z,97353.91
2022-11-14T21:41:39.965Z,97345.63
2022-11-14T21:44:06.301Z,97347.25
2022-11-14T21:46:34.385Z,97353.38
2022-11-14T21:49:00.750Z,97361.94
2022-11-14T21:51:27.137Z,97358.22
2022-11-14T21:53:54.553Z,97361.69
2022-11-14T21:56:21.200Z,97358.75
2022-11-14T21:58:48.618Z,97367.31
2022-11-14T22:01:14.991Z,97362.78
2022-11-14T22:03:41.445Z,97368.94
2022-11-14T22:06:07.880Z,97368.94
2022-11-14T22:08:34.207Z,97365.16
2022-11-14T22:11:00.930Z,97365.16
2022-11-14T22:13:27.615Z,97372.91
2022-11-14T22:15:54.169Z,97371.06
2022-11-14T22:18:21.093Z,97378.81
2022-11-14T22:20:49.593Z,97384.97
2022-11-14T22:23:17.080Z,97379.63
2022-11-14T22:25:44.619Z,97380.44
2022-11-14T22:28:12.244Z,97374.00
2022-11-14T22:30:38.537Z,97380.16
2022-11-14T22:33:05.176Z,97390.03
2022-11-14T22:35:33.261Z,97397.78
2022-11-14T22:37:59.742Z,97392.44
2022-11-14T22:40:26.063Z,97397.53
2022-11-14T22:42:53.130Z,97393.00
2022-11-14T22:45:21.131Z,97393.00
2022-11-14T22:47:48.579Z,97394.34
2022-11-14T22:50:15.354Z,97394.34
2022-11-14T22:52:41.997Z,97394.88
2022-11-14T22:55:11.400Z,97400.75
2022-11-14T22:57:42.344Z,97403.16
2022-11-14T23:00:09.366Z,97409.31
2022-11-14T23:02:35.618Z,97403.97
2022-11-14T23:05:03.448Z,97398.63
2022-11-14T23:07:29.944Z,97393.81
2022-11-14T23:09:58.039Z,97405.31
2022-11-14T23:12:24.928Z,97404.25
2022-11-14T23:14:51.229Z,97406.91
2022-11-14T23:17:19.284Z,97394.38
2022-11-14T23:19:45.791Z,97398.91
2022-11-14T23:22:13.893Z,97399.72
2022-11-14T23:24:40.192Z,97399.72
2022-11-14T23:27:06.435Z,97400.50
2022-11-14T23:29:33.688Z,97402.13
2022-11-14T23:32:00.013Z,97394.91
2022-11-14T23:34:26.720Z,97402.13
2022-11-14T23:36:54.049Z,97390.63
2022-11-14T23:39:20.556Z,97391.44
2022-11-14T23:41:49.092Z,97381.22
2022-11-14T23:44:16.545Z,97376.03
2022-11-14T23:46:42.872Z,97386.28
2022-11-14T23:49:09.137Z,97377.41
2022-11-14T23:51:35.923Z,97381.34
2022-11-14T23:54:03.630Z,97381.84
2022-11-14T23:56:30.663Z,97372.72
2022-11-14T23:58:57.228Z,97377.78
